首页
METAR-TAF:

METAR-TAF

机场 :

瑟堡, 法国

纬度: 49-39N, 经度: 001-28W, 海拔: 138米

当前天气观测

该预报发布于30分钟前的07:30 UTC
风速17节,风向
温度 6°C
湿度 93%
气压 1022 hPa
能見度: 8000
阴天层高于400英尺

METAR: LFRC 100730Z AUTO 19017KT 8000 OVC004 06/05 Q1022

时间: 09:00 (08:00 UTC)

预报

该预报发布于18小时和0分钟前的14:00 UTC
预报有效从09日的 15点(UTC)到 09日的 24点(UTC)
风速20节,风向北转西北,有时为35节阵风
能见度10公里或以上
散云层高于3000英尺
成为
从 09日的 15点(UTC)到 09日的 17点(UTC)
风速15节,风向西北,有时为25节阵风
成为
从 09日的 18点(UTC)到 09日的 20点(UTC)
风速10节,风向北转西北
成为
从 09日的 20点(UTC)到 09日的 22点(UTC)
风速5节,风向多变

TAF: LFRC 091400Z 0915/0924 33020G35KT 9999 SCT030 BECMG 0915/0917 32015G25KT BECMG 0918/0920 33010KT BECMG 0920/0922 VRB05KT

超过4000个机场的气象观测和天气预报(METAR&TAF报告)。

可查询的气象台以黄色和红色小点在地图上表示。

将鼠标移到小点上方,可查看气象台名称。

然后点击查看天气观测和预报。

如需切换地图:点击带黑十字的绿色按钮放大地图;点击带横线的绿色按钮缩小地图;或者点击绿色箭头查看邻近地区的地图。


METAR-TAF: